createdAt,value
2023-04-11T00:00:50.915Z,100261.94
2023-04-11T00:03:17.785Z,100251.41
2023-04-11T00:05:44.506Z,100263.69
2023-04-11T00:08:11.180Z,100249.50
2023-04-11T00:10:37.969Z,100261.75
2023-04-11T00:13:04.822Z,100250.56
2023-04-11T00:15:31.446Z,100249.13
2023-04-11T00:17:58.127Z,100240.47
2023-04-11T00:20:24.827Z,100237.78
2023-04-11T00:22:51.446Z,100226.72
2023-04-11T00:25:18.329Z,100225.59
2023-04-11T00:27:44.940Z,100225.59
2023-04-11T00:30:11.867Z,100227.75
2023-04-11T00:32:38.600Z,100226.69
2023-04-11T00:35:05.781Z,100224.22
2023-04-11T00:37:32.475Z,100217.19
2023-04-11T00:39:59.107Z,100222.41
2023-04-11T00:42:25.768Z,100219.50
2023-04-11T00:44:52.568Z,100225.72
2023-04-11T00:47:19.899Z,100220.50
2023-04-11T00:49:46.815Z,100211.06
2023-04-11T00:52:13.669Z,100207.38
2023-04-11T00:54:40.503Z,100213.97
2023-04-11T00:57:08.134Z,100207.94
2023-04-11T00:59:35.417Z,100203.88
2023-04-11T01:02:02.221Z,100205.69
2023-04-11T01:04:29.030Z,100199.84
2023-04-11T01:07:05.521Z,100196.25
2023-04-11T01:09:34.641Z,100204.72
2023-04-11T01:12:03.496Z,100203.25
2023-04-11T01:14:30.344Z,100201.38
2023-04-11T01:16:58.082Z,100204.59
2023-04-11T01:19:26.315Z,100198.56
2023-04-11T01:21:54.586Z,100187.09
2023-04-11T01:24:21.189Z,100190.59
2023-04-11T01:26:47.992Z,100194.13
2023-04-11T01:29:14.635Z,100190.16
2023-04-11T01:31:41.312Z,100181.38
2023-04-11T01:34:08.360Z,100170.56
2023-04-11T01:36:35.160Z,100171.78
2023-04-11T01:39:01.858Z,100169.09
2023-04-11T01:41:30.631Z,100167.59
2023-04-11T01:43:57.399Z,100160.06
2023-04-11T01:46:25.328Z,100160.31
2023-04-11T01:48:56.176Z,100161.16
2023-04-11T01:51:23.054Z,100164.28
2023-04-11T01:53:49.854Z,100162.38
2023-04-11T01:56:16.799Z,100160.66
2023-04-11T01:58:43.503Z,100149.59
2023-04-11T02:01:10.345Z,100151.53
2023-04-11T02:03:37.194Z,100153.50
2023-04-11T02:06:04.204Z,100151.97
2023-04-11T02:08:31.053Z,100148.41
2023-04-11T02:10:57.691Z,100147.59
2023-04-11T02:13:24.427Z,100145.06
2023-04-11T02:15:51.076Z,100138.25
2023-04-11T02:18:17.783Z,100139.22
2023-04-11T02:20:44.392Z,100145.16
2023-04-11T02:23:11.065Z,100148.59
2023-04-11T02:25:37.703Z,100153.19
2023-04-11T02:28:06.730Z,100144.47
2023-04-11T02:30:34.709Z,100136.63
2023-04-11T02:33:01.655Z,100141.81
2023-04-11T02:35:28.389Z,100135.63
2023-04-11T02:37:55.143Z,100137.44
2023-04-11T02:40:21.842Z,100137.53
2023-04-11T02:42:48.549Z,100139.97
2023-04-11T02:45:15.160Z,100137.44
2023-04-11T02:47:41.864Z,100134.81
2023-04-11T02:50:08.985Z,100135.53
2023-04-11T02:52:35.715Z,100132.00
2023-04-11T02:55:02.493Z,100125.09
2023-04-11T02:57:29.160Z,100121.00
2023-04-11T02:59:55.777Z,100120.19
2023-04-11T03:02:22.900Z,100123.44
2023-04-11T03:04:49.710Z,100121.50
2023-04-11T03:07:16.341Z,100123.31
2023-04-11T03:09:43.051Z,100123.38
2023-04-11T03:12:09.698Z,100119.13
2023-04-11T03:14:36.383Z,100117.44
2023-04-11T03:17:03.024Z,100123.47
2023-04-11T03:19:29.665Z,100119.91
2023-04-11T03:21:56.689Z,100111.31
2023-04-11T03:24:23.423Z,100116.69
2023-04-11T03:26:50.015Z,100112.13
2023-04-11T03:29:16.693Z,100114.94
2023-04-11T03:31:46.141Z,100112.44
2023-04-11T03:34:12.819Z,100117.53
2023-04-11T03:36:39.612Z,100121.16
2023-04-11T03:39:06.263Z,100115.16
2023-04-11T03:41:32.959Z,100123.03
2023-04-11T03:43:59.651Z,100121.16
2023-04-11T03:46:26.417Z,100119.28
2023-04-11T03:48:53.365Z,100116.78
2023-04-11T03:51:20.130Z,100113.38
2023-04-11T03:53:46.729Z,100105.63
2023-04-11T03:56:13.435Z,100103.03
2023-04-11T03:58:40.080Z,100116.69
2023-04-11T04:01:07.929Z,100116.78
2023-04-11T04:03:35.090Z,100120.94
2023-04-11T04:06:02.149Z,100121.13
2023-04-11T04:08:29.021Z,100124.41
2023-04-11T04:10:55.679Z,100121.22
2023-04-11T04:13:22.289Z,100122.94
2023-04-11T04:15:50.461Z,100117.78
2023-04-11T04:18:17.511Z,100114.94
2023-04-11T04:20:44.450Z,100111.41
2023-04-11T04:23:11.302Z,100109.59
2023-04-11T04:25:38.003Z,100108.94
2023-04-11T04:28:04.746Z,100105.69
2023-04-11T04:30:31.388Z,100110.06
2023-04-11T04:32:58.106Z,100107.44
2023-04-11T04:35:26.166Z,100105.69
2023-04-11T04:37:52.931Z,100115.06
2023-04-11T04:40:19.626Z,100115.75
2023-04-11T04:42:46.927Z,100112.00
2023-04-11T04:45:13.533Z,100126.06
2023-04-11T04:47:40.205Z,100114.91
2023-04-11T04:50:07.755Z,100124.47
2023-04-11T04:52:34.473Z,100119.25
2023-04-11T04:55:01.242Z,100121.00
2023-04-11T04:57:29.754Z,100106.28
2023-04-11T04:59:57.898Z,100110.66
2023-04-11T05:02:24.995Z,100110.56
2023-04-11T05:04:51.896Z,100103.84
2023-04-11T05:07:18.524Z,100109.13
2023-04-11T05:09:45.152Z,100111.81
2023-04-11T05:12:11.817Z,100106.47
2023-04-11T05:14:38.443Z,100102.94
2023-04-11T05:17:05.202Z,100103.72
2023-04-11T05:19:32.057Z,100101.00
2023-04-11T05:21:58.710Z,100091.56
2023-04-11T05:24:25.351Z,100090.75
2023-04-11T05:26:52.084Z,100090.59
2023-04-11T05:29:18.712Z,100088.75
2023-04-11T05:31:45.339Z,100083.41
2023-04-11T05:34:12.061Z,100081.69
2023-04-11T05:36:38.679Z,100080.78
2023-04-11T05:39:05.330Z,100088.19
2023-04-11T05:41:32.070Z,100084.41
2023-04-11T05:43:58.733Z,100085.41
2023-04-11T05:46:25.386Z,100095.78
2023-04-11T05:48:52.280Z,100087.56
2023-04-11T05:51:18.981Z,100087.66
2023-04-11T05:53:45.739Z,100077.19
2023-04-11T05:56:12.379Z,100084.91
2023-04-11T05:58:39.474Z,100084.41
2023-04-11T06:01:06.156Z,100077.88
2023-04-11T06:03:33.023Z,100078.88
2023-04-11T06:06:00.262Z,100070.25
2023-04-11T06:08:26.896Z,100065.47
2023-04-11T06:10:53.554Z,100063.81
2023-04-11T06:13:20.190Z,100060.00
2023-04-11T06:15:46.949Z,100054.38
2023-04-11T06:18:13.678Z,100048.13
2023-04-11T06:20:40.336Z,100050.56
2023-04-11T06:23:06.920Z,100047.09
2023-04-11T06:25:33.634Z,100040.81
2023-04-11T06:28:00.271Z,100044.97
2023-04-11T06:30:27.022Z,100047.66
2023-04-11T06:32:53.864Z,100062.94
2023-04-11T06:35:20.621Z,100047.41
2023-04-11T06:37:47.316Z,100052.72
2023-04-11T06:40:14.060Z,100048.16
2023-04-11T06:42:42.284Z,100042.88
2023-04-11T06:45:10.153Z,100041.72
2023-04-11T06:47:36.935Z,100039.34
2023-04-11T06:50:03.719Z,100041.34
2023-04-11T06:52:30.477Z,100038.88
2023-04-11T06:54:57.231Z,100045.97
2023-04-11T06:57:23.965Z,100046.44
2023-04-11T06:59:50.677Z,100037.53
2023-04-11T07:02:17.458Z,100039.22
2023-04-11T07:04:44.299Z,100044.75
2023-04-11T07:07:11.124Z,100043.69
2023-04-11T07:09:37.809Z,100046.50
2023-04-11T07:12:04.697Z,100047.97
2023-04-11T07:14:31.728Z,100045.13
2023-04-11T07:16:58.424Z,100045.25
2023-04-11T07:19:25.086Z,100041.63
2023-04-11T07:21:51.801Z,100031.94
2023-04-11T07:24:18.502Z,100019.75
2023-04-11T07:26:45.510Z,100025.09
2023-04-11T07:29:14.419Z,100018.31
2023-04-11T07:31:41.727Z,100019.28
2023-04-11T07:34:08.409Z,100019.47
2023-04-11T07:36:35.048Z,100019.16
2023-04-11T07:39:02.251Z,100015.81
2023-04-11T07:41:28.900Z,100017.03
2023-04-11T07:43:55.681Z,100021.34
2023-04-11T07:46:22.549Z,100023.97
2023-04-11T07:48:49.185Z,100020.56
2023-04-11T07:51:15.820Z,100029.13
2023-04-11T07:53:42.482Z,100019.34
2023-04-11T07:56:10.442Z,100022.22
2023-04-11T07:58:37.209Z,100023.00
2023-04-11T08:01:03.961Z,100016.53
2023-04-11T08:03:30.853Z,100012.28
2023-04-11T08:05:57.632Z,100008.63
2023-04-11T08:08:24.505Z,100003.44
2023-04-11T08:10:52.326Z,100005.94
2023-04-11T08:13:19.100Z,99997.69
2023-04-11T08:15:45.754Z,100002.41
2023-04-11T08:18:12.556Z,99996.38
2023-04-11T08:20:39.283Z,100003.19
2023-04-11T08:23:08.923Z,100005.06
2023-04-11T08:25:35.748Z,99996.34
2023-04-11T08:28:02.505Z,99989.72
2023-04-11T08:30:29.195Z,99981.50
2023-04-11T08:32:55.868Z,99981.00
2023-04-11T08:35:22.822Z,99969.13
2023-04-11T08:37:49.434Z,99966.91
2023-04-11T08:40:16.198Z,99961.59
2023-04-11T08:42:43.023Z,99958.31
2023-04-11T08:45:10.206Z,99952.59
2023-04-11T08:47:36.939Z,99952.56
2023-04-11T08:50:04.865Z,99940.09
2023-04-11T08:52:31.757Z,99933.09
2023-04-11T08:54:58.384Z,99931.94
2023-04-11T08:57:31.336Z,99923.75
2023-04-11T09:00:00.707Z,99920.06
2023-04-11T09:02:27.534Z,99913.06
2023-04-11T09:04:54.419Z,99902.88
2023-04-11T09:07:21.089Z,99910.63
2023-04-11T09:09:47.876Z,99911.00
2023-04-11T09:12:14.682Z,99897.59
2023-04-11T09:14:41.452Z,99904.44
2023-04-11T09:17:08.935Z,99902.06
2023-04-11T09:19:35.537Z,99896.63
2023-04-11T09:22:03.925Z,99901.63
2023-04-11T09:24:31.312Z,99896.19
2023-04-11T09:27:10.717Z,99892.72
2023-04-11T09:29:42.268Z,99892.03
2023-04-11T09:32:27.352Z,99884.38
2023-04-11T09:35:13.532Z,99890.91
2023-04-11T09:37:44.773Z,99887.16
2023-04-11T09:40:12.027Z,99873.81
2023-04-11T09:42:38.674Z,99866.75
2023-04-11T09:45:05.941Z,99865.28
2023-04-11T09:47:33.461Z,99861.63
2023-04-11T09:50:00.313Z,99864.66
2023-04-11T09:52:30.507Z,99859.81
2023-04-11T09:54:57.394Z,99868.91
2023-04-11T09:57:25.363Z,99869.97
2023-04-11T09:59:52.717Z,99865.72
2023-04-11T10:02:19.525Z,99863.16
2023-04-11T10:04:46.263Z,99856.72
2023-04-11T10:07:14.908Z,99855.34
2023-04-11T10:09:42.750Z,99848.84
2023-04-11T10:12:09.561Z,99852.13
2023-04-11T10:14:39.267Z,99849.34
2023-04-11T10:17:21.134Z,99838.69
2023-04-11T10:19:49.068Z,99844.19
2023-04-11T10:22:40.556Z,99840.22
2023-04-11T10:25:18.704Z,99837.97
2023-04-11T10:27:52.828Z,99831.38
2023-04-11T10:30:39.412Z,99820.63
2023-04-11T10:33:16.640Z,99810.25
2023-04-11T10:36:08.510Z,99806.31
2023-04-11T10:38:45.053Z,99807.34
2023-04-11T10:41:26.244Z,99798.88
2023-04-11T10:44:21.365Z,99795.06
2023-04-11T10:46:54.478Z,99788.78
2023-04-11T10:49:38.743Z,99785.38
2023-04-11T10:52:22.765Z,99787.31
2023-04-11T10:54:51.646Z,99786.59
2023-04-11T10:57:18.789Z,99794.06
2023-04-11T10:59:51.748Z,99777.22
2023-04-11T11:02:18.831Z,99769.72
2023-04-11T11:04:46.702Z,99772.97
2023-04-11T11:07:14.677Z,99774.25
2023-04-11T11:09:41.438Z,99765.03
2023-04-11T11:12:08.606Z,99767.66
2023-04-11T11:14:35.622Z,99758.88
2023-04-11T11:17:02.590Z,99746.47
2023-04-11T11:19:30.245Z,99744.22
2023-04-11T11:21:56.881Z,99747.78
2023-04-11T11:24:26.675Z,99748.13
2023-04-11T11:26:54.887Z,99733.66
2023-04-11T11:29:31.202Z,99726.72
2023-04-11T11:31:59.763Z,99724.06
2023-04-11T11:34:31.821Z,99723.47
2023-04-11T11:37:00.325Z,99719.72
2023-04-11T11:39:29.306Z,99719.53
2023-04-11T11:41:56.252Z,99711.09
2023-04-11T11:44:24.932Z,99707.47
2023-04-11T11:47:05.811Z,99716.44
2023-04-11T11:49:54.502Z,99713.97
2023-04-11T11:52:35.330Z,99710.63
2023-04-11T11:55:03.223Z,99711.72
2023-04-11T11:57:29.873Z,99716.00
2023-04-11T11:59:58.244Z,99701.31
2023-04-11T12:02:26.452Z,99701.88
2023-04-11T12:05:01.619Z,99701.88
2023-04-11T12:07:36.697Z,99697.13
2023-04-11T12:10:05.514Z,99700.03
2023-04-11T12:12:37.150Z,99706.69
2023-04-11T12:15:11.367Z,99700.25
2023-04-11T12:17:38.906Z,99701.22
2023-04-11T12:20:06.847Z,99711.06
2023-04-11T12:22:34.197Z,99703.03
2023-04-11T12:25:08.514Z,99699.91
2023-04-11T12:27:36.853Z,99696.75
2023-04-11T12:30:04.283Z,99695.09
2023-04-11T12:32:31.635Z,99692.41
2023-04-11T12:34:58.355Z,99690.09
2023-04-11T12:37:24.970Z,99698.78
2023-04-11T12:39:51.674Z,99691.53
2023-04-11T12:42:20.957Z,99687.75
2023-04-11T12:44:51.222Z,99685.47
2023-04-11T12:47:18.312Z,99682.06
2023-04-11T12:49:45.040Z,99675.16
2023-04-11T12:52:11.691Z,99664.34
2023-04-11T12:54:38.606Z,99677.25
2023-04-11T12:57:05.242Z,99666.31
2023-04-11T12:59:32.685Z,99652.34
2023-04-11T13:01:59.740Z,99652.13
2023-04-11T13:04:26.552Z,99653.44
2023-04-11T13:06:53.374Z,99656.00
2023-04-11T13:09:20.145Z,99642.56
2023-04-11T13:11:46.741Z,99637.69
2023-04-11T13:14:13.432Z,99636.97
2023-04-11T13:16:40.140Z,99638.34
2023-04-11T13:19:06.796Z,99623.78
2023-04-11T13:21:33.523Z,99624.00
2023-04-11T13:24:00.177Z,99627.69
2023-04-11T13:26:26.748Z,99623.16
2023-04-11T13:28:53.370Z,99613.22
2023-04-11T13:31:20.017Z,99604.56
2023-04-11T13:33:46.682Z,99608.84
2023-04-11T13:36:13.350Z,99602.19
2023-04-11T13:38:39.947Z,99602.84
2023-04-11T13:41:06.815Z,99603.44
2023-04-11T13:43:33.558Z,99592.34
2023-04-11T13:46:00.249Z,99589.13
2023-04-11T13:48:26.951Z,99597.53
2023-04-11T13:50:53.773Z,99589.84
2023-04-11T13:53:20.510Z,99578.81
2023-04-11T13:55:47.161Z,99580.78
2023-04-11T13:58:14.443Z,99580.97
2023-04-11T14:00:41.264Z,99568.72
2023-04-11T14:03:08.129Z,99574.59
2023-04-11T14:05:34.897Z,99580.25
2023-04-11T14:08:03.062Z,99582.03
2023-04-11T14:10:29.781Z,99571.44
2023-04-11T14:12:56.573Z,99579.72
2023-04-11T14:15:23.733Z,99577.13
2023-04-11T14:17:50.424Z,99567.03
2023-04-11T14:20:17.189Z,99563.81
2023-04-11T14:22:44.561Z,99567.09
2023-04-11T14:25:11.807Z,99567.19
2023-04-11T14:27:39.991Z,99572.63
2023-04-11T14:30:11.370Z,99573.75
2023-04-11T14:32:38.193Z,99571.03
2023-04-11T14:35:05.606Z,99563.91
2023-04-11T14:37:32.276Z,99572.88
2023-04-11T14:39:58.981Z,99575.97
2023-04-11T14:42:25.689Z,99575.81
2023-04-11T14:44:52.542Z,99579.31
2023-04-11T14:47:19.516Z,99588.47
2023-04-11T14:49:46.229Z,99583.63
2023-04-11T14:52:12.899Z,99583.84
2023-04-11T14:54:39.597Z,99598.69
2023-04-11T14:57:06.256Z,99591.50
2023-04-11T14:59:33.211Z,99603.75
2023-04-11T15:02:00.063Z,99612.72
2023-04-11T15:04:26.830Z,99614.56
2023-04-11T15:06:53.466Z,99614.16
2023-04-11T15:09:20.229Z,99627.25
2023-04-11T15:11:47.501Z,99622.63
2023-04-11T15:14:14.847Z,99627.00
2023-04-11T15:16:41.455Z,99625.84
2023-04-11T15:19:08.095Z,99618.00
2023-04-11T15:21:34.935Z,99621.84
2023-04-11T15:24:01.910Z,99622.97
2023-04-11T15:26:28.771Z,99629.81
2023-04-11T15:28:55.398Z,99632.59
2023-04-11T15:31:26.222Z,99619.41
2023-04-11T15:33:55.021Z,99629.91
2023-04-11T15:36:21.843Z,99639.94
2023-04-11T15:38:48.529Z,99639.47
2023-04-11T15:41:15.260Z,99643.94
2023-04-11T15:43:41.897Z,99641.22
2023-04-11T15:46:08.592Z,99653.44
2023-04-11T15:48:35.237Z,99656.69
2023-04-11T15:51:08.981Z,99661.72
2023-04-11T15:53:35.654Z,99661.84
2023-04-11T15:56:06.775Z,99662.53
2023-04-11T15:58:33.944Z,99661.47
2023-04-11T16:01:00.782Z,99666.53
2023-04-11T16:03:28.182Z,99661.13
2023-04-11T16:05:54.848Z,99668.88
2023-04-11T16:08:21.454Z,99670.56
2023-04-11T16:10:48.114Z,99677.91
2023-04-11T16:13:14.849Z,99676.06
2023-04-11T16:15:41.469Z,99674.59
2023-04-11T16:18:08.132Z,99670.00
2023-04-11T16:20:34.758Z,99672.00
2023-04-11T16:23:01.512Z,99660.03
2023-04-11T16:25:28.111Z,99660.34
2023-04-11T16:27:55.046Z,99670.75
2023-04-11T16:30:21.690Z,99655.81
2023-04-11T16:32:48.629Z,99652.84
2023-04-11T16:35:15.334Z,99646.28
2023-04-11T16:37:41.921Z,99646.81
2023-04-11T16:40:09.176Z,99633.63
2023-04-11T16:42:35.789Z,99632.59
2023-04-11T16:45:02.424Z,99635.19
2023-04-11T16:47:29.100Z,99637.69
2023-04-11T16:49:56.602Z,99639.25
2023-04-11T16:52:23.648Z,99631.53
2023-04-11T16:54:50.996Z,99633.88
2023-04-11T16:57:17.768Z,99631.25
2023-04-11T16:59:44.580Z,99636.09
2023-04-11T17:02:11.263Z,99633.09
2023-04-11T17:04:37.998Z,99644.25
2023-04-11T17:07:04.932Z,99634.69
2023-04-11T17:09:31.566Z,99631.09
2023-04-11T17:11:58.491Z,99627.03
2023-04-11T17:14:25.168Z,99637.78
2023-04-11T17:16:51.900Z,99635.06
2023-04-11T17:19:18.564Z,99634.66
2023-04-11T17:21:45.257Z,99628.88
2023-04-11T17:24:12.009Z,99634.28
2023-04-11T17:26:38.650Z,99621.66
2023-04-11T17:29:05.227Z,99638.09
2023-04-11T17:31:32.066Z,99632.00
2023-04-11T17:33:59.281Z,99637.44
2023-04-11T17:36:26.101Z,99622.13
2023-04-11T17:38:52.689Z,99628.38
2023-04-11T17:41:19.328Z,99631.88
2023-04-11T17:43:46.092Z,99627.34
2023-04-11T17:46:12.774Z,99618.81
2023-04-11T17:48:39.482Z,99619.91
2023-04-11T17:51:06.672Z,99625.56
2023-04-11T17:53:33.562Z,99620.28
2023-04-11T17:56:04.108Z,99628.28
2023-04-11T17:58:30.747Z,99622.63
2023-04-11T18:00:57.458Z,99625.69
2023-04-11T18:03:24.799Z,99623.38
2023-04-11T18:05:51.752Z,99627.28
2023-04-11T18:08:18.683Z,99627.59
2023-04-11T18:10:45.315Z,99624.25
2023-04-11T18:13:13.163Z,99620.34
2023-04-11T18:15:41.699Z,99628.38
2023-04-11T18:18:08.389Z,99628.53
2023-04-11T18:20:36.278Z,99634.56
2023-04-11T18:23:02.920Z,99633.06
2023-04-11T18:25:30.108Z,99643.91
2023-04-11T18:27:56.958Z,99634.22
2023-04-11T18:30:23.949Z,99649.31
2023-04-11T18:32:51.132Z,99640.91
2023-04-11T18:35:18.137Z,99638.34
2023-04-11T18:37:45.190Z,99638.38
2023-04-11T18:40:14.623Z,99637.72
2023-04-11T18:42:44.198Z,99637.84
2023-04-11T18:45:12.166Z,99636.94
2023-04-11T18:47:40.298Z,99633.22
2023-04-11T18:50:08.308Z,99633.84
2023-04-11T18:52:35.669Z,99641.84
2023-04-11T18:55:05.056Z,99642.53
2023-04-11T18:57:34.025Z,99654.84
2023-04-11T19:00:04.500Z,99642.84
2023-04-11T19:02:32.125Z,99645.31
2023-04-11T19:04:58.876Z,99639.56
2023-04-11T19:07:25.570Z,99636.69
2023-04-11T19:09:52.296Z,99639.78
2023-04-11T19:12:19.178Z,99637.88
2023-04-11T19:14:46.094Z,99644.44
2023-04-11T19:17:13.040Z,99646.94
2023-04-11T19:19:39.777Z,99644.00
2023-04-11T19:22:06.489Z,99642.50
2023-04-11T19:24:33.177Z,99646.13
2023-04-11T19:26:59.968Z,99636.66
2023-04-11T19:29:26.628Z,99639.06
2023-04-11T19:31:53.398Z,99639.41
2023-04-11T19:34:20.258Z,99645.50
2023-04-11T19:36:46.908Z,99642.13
2023-04-11T19:39:15.005Z,99639.25
2023-04-11T19:41:45.154Z,99641.00
2023-04-11T19:44:12.097Z,99640.06
2023-04-11T19:46:39.499Z,99628.25
2023-04-11T19:49:09.155Z,99625.47
2023-04-11T19:51:36.151Z,99631.53
2023-04-11T19:54:02.863Z,99618.09
2023-04-11T19:56:29.543Z,99613.88
2023-04-11T19:58:56.224Z,99625.38
2023-04-11T20:01:25.923Z,99627.84
2023-04-11T20:03:52.614Z,99630.22
2023-04-11T20:06:19.264Z,99636.00
2023-04-11T20:08:45.886Z,99626.34
2023-04-11T20:11:15.937Z,99619.38
2023-04-11T20:13:42.526Z,99618.47
2023-04-11T20:16:09.434Z,99637.44
2023-04-11T20:18:36.144Z,99619.00
2023-04-11T20:21:02.793Z,99629.53
2023-04-11T20:23:31.228Z,99632.63
2023-04-11T20:25:58.097Z,99644.72
2023-04-11T20:28:24.794Z,99650.59
2023-04-11T20:30:51.863Z,99661.94
2023-04-11T20:33:18.565Z,99652.13
2023-04-11T20:35:45.256Z,99658.34
2023-04-11T20:38:11.883Z,99662.47
2023-04-11T20:40:38.663Z,99654.19
2023-04-11T20:43:05.399Z,99650.28
2023-04-11T20:45:32.096Z,99645.03
2023-04-11T20:47:58.911Z,99644.19
2023-04-11T20:50:25.581Z,99641.38
2023-04-11T20:52:52.437Z,99633.28
2023-04-11T20:55:19.221Z,99631.03
2023-04-11T20:57:45.863Z,99619.06
2023-04-11T21:00:12.743Z,99610.03
2023-04-11T21:02:40.519Z,99598.41
2023-04-11T21:05:07.750Z,99589.97
2023-04-11T21:07:35.574Z,99589.25
2023-04-11T21:10:02.325Z,99570.06
2023-04-11T21:12:28.948Z,99559.25
2023-04-11T21:14:57.789Z,99566.31
2023-04-11T21:17:24.521Z,99572.69
2023-04-11T21:19:51.320Z,99577.03
2023-04-11T21:22:18.035Z,99577.72
2023-04-11T21:24:44.760Z,99582.22
2023-04-11T21:27:11.491Z,99581.25
2023-04-11T21:29:38.151Z,99579.88
2023-04-11T21:32:04.947Z,99583.34
2023-04-11T21:34:31.532Z,99583.13
2023-04-11T21:36:58.134Z,99583.59
2023-04-11T21:39:24.883Z,99574.06
2023-04-11T21:41:51.517Z,99574.44
2023-04-11T21:44:18.133Z,99575.69
2023-04-11T21:46:44.835Z,99570.75
2023-04-11T21:49:11.525Z,99575.69
2023-04-11T21:51:38.172Z,99572.34
2023-04-11T21:54:05.163Z,99583.16
2023-04-11T21:56:31.865Z,99580.06
2023-04-11T21:58:58.684Z,99569.50
2023-04-11T22:01:25.441Z,99574.72
2023-04-11T22:03:52.385Z,99578.16
2023-04-11T22:06:19.195Z,99580.13
2023-04-11T22:08:45.880Z,99579.94
2023-04-11T22:11:12.799Z,99583.88
2023-04-11T22:13:39.437Z,99589.06
2023-04-11T22:16:07.083Z,99579.69
2023-04-11T22:18:35.937Z,99577.06
2023-04-11T22:21:02.620Z,99584.91
2023-04-11T22:23:29.193Z,99592.91
2023-04-11T22:25:56.647Z,99580.06
2023-04-11T22:28:23.878Z,99566.19
2023-04-11T22:30:50.518Z,99573.34
2023-04-11T22:33:17.200Z,99573.38
2023-04-11T22:35:44.063Z,99562.09
2023-04-11T22:38:11.571Z,99562.78
2023-04-11T22:40:38.301Z,99562.09
2023-04-11T22:43:04.909Z,99562.16
2023-04-11T22:45:32.999Z,99560.56
2023-04-11T22:48:01.259Z,99557.09
2023-04-11T22:50:27.908Z,99559.00
2023-04-11T22:52:54.536Z,99547.84
2023-04-11T22:55:21.314Z,99533.88
2023-04-11T22:57:48.107Z,99529.53
2023-04-11T23:00:15.135Z,99529.19
2023-04-11T23:02:41.845Z,99516.53
2023-04-11T23:05:09.039Z,99520.75
2023-04-11T23:07:35.634Z,99516.50
2023-04-11T23:10:02.293Z,99522.03
2023-04-11T23:12:29.024Z,99517.16
2023-04-11T23:14:55.874Z,99513.50
2023-04-11T23:17:22.521Z,99523.06
2023-04-11T23:19:49.717Z,99520.63
2023-04-11T23:22:16.716Z,99526.38
2023-04-11T23:24:43.438Z,99533.19
2023-04-11T23:27:10.135Z,99530.69
2023-04-11T23:29:36.748Z,99524.19
2023-04-11T23:32:03.499Z,99510.31
2023-04-11T23:34:30.113Z,99507.81
2023-04-11T23:36:56.785Z,99504.28
2023-04-11T23:39:23.596Z,99504.91
2023-04-11T23:41:51.174Z,99500.91
2023-04-11T23:44:17.900Z,99495.34
2023-04-11T23:46:44.549Z,99493.84
2023-04-11T23:49:11.122Z,99504.34
2023-04-11T23:51:37.873Z,99503.34
2023-04-11T23:54:04.685Z,99498.97
2023-04-11T23:56:31.271Z,99508.81
2023-04-11T23:58:57.892Z,99512.22
